Time;durP1;ratioP1;P1;durP2;ratioP2;P2;SDS_P1;SDS_P2;PMS_P1;PMS_P2;Temp;Humidity;BMP_temperature;BMP_pressure;BME280_temperature;BME280_humidity;BME280_pressure;Samples;Min_cycle;Max_cycle;Signal;HPM_P1;HPM_P2
2022/10/27 00:01:32;;;;;;;33.60;13.57;;;;;;;;;;5030239;28;20017;-66
2022/10/27 00:03:57;;;;;;;27.85;12.40;;;;;;;;;;5030415;28;20642;-66
2022/10/27 00:06:22;;;;;;;37.13;13.88;;;;;;;;;;5029201;28;20022;-67
2022/10/27 00:08:49;;;;;;;37.50;12.70;;;;;;;;;;5029819;28;20022;-67
2022/10/27 00:11:14;;;;;;;36.17;14.65;;;;;;;;;;5030126;28;20021;-65
2022/10/27 00:13:39;;;;;;;37.03;15.32;;;;;;;;;;5030869;28;20025;-66
2022/10/27 00:16:06;;;;;;;39.03;14.40;;;;;;;;;;5030059;28;20017;-66
2022/10/27 00:18:31;;;;;;;36.13;15.20;;;;;;;;;;5030332;28;20255;-67
2022/10/27 00:20:57;;;;;;;30.25;14.63;;;;;;;;;;5010721;28;20164;-65
2022/10/27 00:23:23;;;;;;;32.00;14.23;;;;;;;;;;5022889;28;20018;-67
2022/10/27 00:25:51;;;;;;;31.40;13.63;;;;;;;;;;5029571;28;20072;-68
2022/10/27 00:28:17;;;;;;;36.92;16.90;;;;;;;;;;5025949;28;20022;-68
2022/10/27 00:30:42;;;;;;;31.27;14.68;;;;;;;;;;5027681;28;20398;-66
2022/10/27 00:33:07;;;;;;;35.00;16.42;;;;;;;;;;5034121;28;20040;-68
2022/10/27 00:35:34;;;;;;;44.60;16.00;;;;;;;;;;5034231;28;20032;-67
2022/10/27 00:38:00;;;;;;;43.80;16.60;;;;;;;;;;5034320;28;20491;-66
2022/10/27 00:40:25;;;;;;;45.30;16.57;;;;;;;;;;5021035;28;20045;-67
2022/10/27 00:42:50;;;;;;;42.15;17.40;;;;;;;;;;5034386;28;20304;-67
2022/10/27 00:45:15;;;;;;;35.33;16.33;;;;;;;;;;5033694;28;20025;-65
2022/10/27 00:47:41;;;;;;;37.20;17.83;;;;;;;;;;5023187;28;20072;-66
2022/10/27 00:50:21;;;;;;;38.70;15.10;;;;;;;;;;5030276;28;20025;-66
2022/10/27 00:52:49;;;;;;;45.03;16.85;;;;;;;;;;5035147;28;20541;-67
2022/10/27 00:55:17;;;;;;;39.47;16.83;;;;;;;;;;5033170;28;20080;-68
2022/10/27 00:57:44;;;;;;;47.35;17.48;;;;;;;;;;5033360;28;20082;-66
2022/10/27 01:00:10;;;;;;;46.05;17.05;;;;;;;;;;5033951;28;20024;-67
2022/10/27 01:02:35;;;;;;;45.50;16.48;;;;;;;;;;5034113;28;20112;-66
2022/10/27 01:05:04;;;;;;;36.58;17.27;;;;;;;;;;5032985;28;20052;-67
2022/10/27 01:07:29;;;;;;;49.05;18.98;;;;;;;;;;5033627;28;20021;-67
2022/10/27 01:09:54;;;;;;;47.20;18.33;;;;;;;;;;5035045;28;20033;-66
2022/10/27 01:12:20;;;;;;;41.60;17.48;;;;;;;;;;5032912;28;20541;-67
2022/10/27 01:14:45;;;;;;;55.92;19.10;;;;;;;;;;5026382;28;20484;-65
2022/10/27 01:17:13;;;;;;;61.97;18.65;;;;;;;;;;5029343;28;20032;-67
2022/10/27 01:19:44;;;;;;;42.03;17.58;;;;;;;;;;5035404;28;20033;-65
2022/10/27 01:22:09;;;;;;;40.30;16.52;;;;;;;;;;5022560;28;20022;-66
2022/10/27 01:24:42;;;;;;;36.37;16.37;;;;;;;;;;5033751;28;20017;-66
2022/10/27 01:27:19;;;;;;;44.75;16.52;;;;;;;;;;5033922;28;20247;-65
2022/10/27 01:29:50;;;;;;;36.47;16.80;;;;;;;;;;5027544;28;20018;-67
2022/10/27 01:32:15;;;;;;;41.72;15.23;;;;;;;;;;5033686;28;20033;-67
2022/10/27 01:34:40;;;;;;;45.65;16.10;;;;;;;;;;5032598;28;20471;-66
2022/10/27 01:37:23;;;;;;;37.63;15.88;;;;;;;;;;5032740;28;20271;-68
2022/10/27 01:40:07;;;;;;;44.78;16.25;;;;;;;;;;5019093;28;20084;-70
2022/10/27 01:42:44;;;;;;;38.75;15.05;;;;;;;;;;5033268;28;20029;-66
2022/10/27 01:45:11;;;;;;;31.30;14.57;;;;;;;;;;5018725;28;20052;-67
2022/10/27 01:47:37;;;;;;;39.88;16.52;;;;;;;;;;5032548;28;20010;-65
2022/10/27 01:50:02;;;;;;;42.83;17.08;;;;;;;;;;5032650;28;20049;-66
2022/10/27 01:52:54;;;;;;;33.45;14.75;;;;;;;;;;5030699;28;20042;-67
2022/10/27 01:55:25;;;;;;;37.35;15.55;;;;;;;;;;5025367;28;20034;-67
2022/10/27 01:57:50;;;;;;;33.95;14.80;;;;;;;;;;5018173;28;20018;-67
2022/10/27 02:00:15;;;;;;;35.80;13.43;;;;;;;;;;5031933;28;20143;-67
2022/10/27 02:02:54;;;;;;;37.10;14.40;;;;;;;;;;5031408;28;20309;-65
2022/10/27 02:05:20;;;;;;;;;;;;;;;;;;5024963;28;20033;-66
2022/10/27 02:08:23;;;;;;;35.47;13.35;;;;;;;;;;5032134;28;19996;-67
2022/10/27 02:11:09;;;;;;;32.28;13.43;;;;;;;;;;4970234;28;20424;-68
2022/10/27 02:13:35;;;;;;;32.03;13.15;;;;;;;;;;4970169;28;20030;-67
2022/10/27 02:16:02;;;;;;;33.50;13.95;;;;;;;;;;4999257;28;20112;-65
2022/10/27 02:18:32;;;;;;;29.33;14.15;;;;;;;;;;5020965;28;20026;-67
2022/10/27 02:21:03;;;;;;;35.97;16.00;;;;;;;;;;5029652;28;20037;-67
2022/10/27 02:23:29;;;;;;;41.85;15.38;;;;;;;;;;5020423;28;20018;-66
2022/10/27 02:26:17;;;;;;;38.55;14.95;;;;;;;;;;5029524;28;20080;-66
2022/10/27 02:28:52;;;;;;;42.58;15.10;;;;;;;;;;5010319;28;20047;-67
2022/10/27 02:31:19;;;;;;;46.50;16.40;;;;;;;;;;5031826;28;20104;-67
2022/10/27 02:33:45;;;;;;;36.25;15.10;;;;;;;;;;5030462;28;20026;-67
2022/10/27 02:36:10;;;;;;;41.92;15.63;;;;;;;;;;5031389;28;20037;-67
2022/10/27 02:38:36;;;;;;;38.60;15.20;;;;;;;;;;5031436;28;20390;-68
2022/10/27 02:41:01;;;;;;;43.25;14.10;;;;;;;;;;5022619;28;20381;-69
2022/10/27 02:43:26;;;;;;;40.13;14.50;;;;;;;;;;5028577;28;20041;-68
2022/10/27 02:45:52;;;;;;;41.72;15.43;;;;;;;;;;5030645;28;20029;-67
2022/10/27 02:48:17;;;;;;;43.13;15.20;;;;;;;;;;5031758;28;20021;-67
2022/10/27 02:50:42;;;;;;;36.15;15.18;;;;;;;;;;5031364;28;20737;-66
2022/10/27 02:53:07;;;;;;;34.75;15.68;;;;;;;;;;5032051;28;20017;-67
2022/10/27 02:55:33;;;;;;;30.88;14.38;;;;;;;;;;5031320;28;20029;-66
2022/10/27 02:57:58;;;;;;;38.33;15.48;;;;;;;;;;5028902;28;20025;-68
2022/10/27 03:00:23;;;;;;;35.45;13.30;;;;;;;;;;5020637;28;20545;-67
2022/10/27 03:02:48;;;;;;;34.33;14.67;;;;;;;;;;5029466;28;20109;-67
2022/10/27 03:05:14;;;;;;;36.10;14.90;;;;;;;;;;5030921;28;20254;-67
2022/10/27 03:07:39;;;;;;;37.47;13.90;;;;;;;;;;5031321;28;20018;-67
2022/10/27 03:10:04;;;;;;;35.80;12.95;;;;;;;;;;5031964;28;20043;-66
2022/10/27 03:12:29;;;;;;;34.65;14.90;;;;;;;;;;5030595;28;20022;-67
2022/10/27 03:14:55;;;;;;;47.25;15.23;;;;;;;;;;5031147;28;20675;-67
2022/10/27 03:17:20;;;;;;;47.03;13.65;;;;;;;;;;5017800;28;20025;-71
2022/10/27 03:19:45;;;;;;;35.78;14.07;;;;;;;;;;5031059;28;20048;-67
2022/10/27 03:22:10;;;;;;;29.70;12.98;;;;;;;;;;5031813;28;20068;-67
2022/10/27 03:24:35;;;;;;;31.92;15.02;;;;;;;;;;5030137;28;20063;-68
2022/10/27 03:27:01;;;;;;;38.47;14.45;;;;;;;;;;5017016;28;20423;-65
2022/10/27 03:29:26;;;;;;;33.03;14.75;;;;;;;;;;5024727;28;20025;-67
2022/10/27 03:31:51;;;;;;;32.25;14.43;;;;;;;;;;5031049;28;20606;-68
2022/10/27 03:34:16;;;;;;;38.33;15.35;;;;;;;;;;5030890;28;20554;-67
2022/10/27 03:36:41;;;;;;;36.65;15.68;;;;;;;;;;5030465;28;20021;-68
2022/10/27 03:39:07;;;;;;;40.85;16.23;;;;;;;;;;5024455;28;20026;-66
2022/10/27 03:41:32;;;;;;;36.65;15.05;;;;;;;;;;5024306;28;20025;-66
2022/10/27 03:43:57;;;;;;;42.17;16.13;;;;;;;;;;5031461;28;20466;-66
2022/10/27 03:46:22;;;;;;;35.53;16.20;;;;;;;;;;5030168;28;20021;-66
2022/10/27 03:48:47;;;;;;;47.95;16.70;;;;;;;;;;5031004;28;20269;-67
2022/10/27 03:51:13;;;;;;;45.60;16.90;;;;;;;;;;5027836;28;20712;-66
2022/10/27 03:53:38;;;;;;;45.45;17.55;;;;;;;;;;5030695;28;20064;-66
2022/10/27 03:56:03;;;;;;;46.90;16.95;;;;;;;;;;5031347;28;20028;-66
2022/10/27 03:58:28;;;;;;;42.72;16.92;;;;;;;;;;5030394;28;20040;-65
2022/10/27 04:00:54;;;;;;;43.80;17.35;;;;;;;;;;5030550;28;20044;-65
2022/10/27 04:03:19;;;;;;;38.95;16.85;;;;;;;;;;5027298;28;20013;-66
2022/10/27 04:05:47;;;;;;;42.65;17.73;;;;;;;;;;5029808;28;20045;-67
2022/10/27 04:08:13;;;;;;;42.97;18.10;;;;;;;;;;5023415;28;20079;-66
2022/10/27 04:10:38;;;;;;;38.83;15.77;;;;;;;;;;5017446;28;20411;-67
2022/10/27 04:13:03;;;;;;;43.47;17.27;;;;;;;;;;5031178;28;20033;-66
2022/10/27 04:15:28;;;;;;;44.22;17.90;;;;;;;;;;5030068;28;20032;-64
2022/10/27 04:17:54;;;;;;;46.38;18.20;;;;;;;;;;5029770;28;20033;-67
2022/10/27 04:20:20;;;;;;;38.50;16.75;;;;;;;;;;5016023;28;20018;-67
2022/10/27 04:22:45;;;;;;;40.97;16.40;;;;;;;;;;5016770;28;20434;-68
2022/10/27 04:25:10;;;;;;;48.65;20.05;;;;;;;;;;5028805;28;20022;-66
2022/10/27 04:27:36;;;;;;;42.92;16.95;;;;;;;;;;5029846;28;20438;-69
2022/10/27 04:30:01;;;;;;;47.08;16.67;;;;;;;;;;5025971;28;20028;-66
2022/10/27 04:32:26;;;;;;;36.65;16.83;;;;;;;;;;5024830;28;20033;-67
2022/10/27 04:34:51;;;;;;;43.92;16.95;;;;;;;;;;5016788;28;20534;-66
2022/10/27 04:37:16;;;;;;;46.22;16.63;;;;;;;;;;5027391;28;20029;-66
2022/10/27 04:39:42;;;;;;;40.80;17.55;;;;;;;;;;5030576;28;20026;-68
2022/10/27 04:42:08;;;;;;;41.47;18.30;;;;;;;;;;5025056;28;20033;-65
2022/10/27 04:44:33;;;;;;;47.13;18.83;;;;;;;;;;5023208;28;20049;-67
2022/10/27 04:46:58;;;;;;;51.67;18.13;;;;;;;;;;5028796;28;20521;-67
2022/10/27 04:49:23;;;;;;;44.75;18.05;;;;;;;;;;5029104;28;20114;-67
2022/10/27 04:51:49;;;;;;;57.67;17.58;;;;;;;;;;5025477;28;20022;-66
2022/10/27 04:54:14;;;;;;;47.00;17.02;;;;;;;;;;5023990;28;20017;-66
2022/10/27 04:56:39;;;;;;;46.50;17.55;;;;;;;;;;5029780;28;20387;-67
2022/10/27 04:59:04;;;;;;;42.40;17.10;;;;;;;;;;5019418;28;20026;-68
2022/10/27 05:01:29;;;;;;;45.08;18.35;;;;;;;;;;5027776;28;20052;-66
2022/10/27 05:03:55;;;;;;;50.88;17.13;;;;;;;;;;5029572;28;20049;-66
2022/10/27 05:06:20;;;;;;;41.88;20.05;;;;;;;;;;5028930;28;20543;-68
2022/10/27 05:08:45;;;;;;;54.67;19.15;;;;;;;;;;5030376;28;20076;-64
2022/10/27 05:11:10;;;;;;;39.80;17.50;;;;;;;;;;5022712;28;20017;-67
2022/10/27 05:13:35;;;;;;;38.90;17.83;;;;;;;;;;5021119;28;20064;-66
2022/10/27 05:16:02;;;;;;;50.20;18.27;;;;;;;;;;5025193;28;20310;-67
2022/10/27 05:18:27;;;;;;;42.08;17.33;;;;;;;;;;5011723;28;20503;-65
2022/10/27 05:20:52;;;;;;;43.05;17.75;;;;;;;;;;5031945;28;20108;-68
2022/10/27 05:23:18;;;;;;;41.00;18.90;;;;;;;;;;5023061;28;20024;-65
2022/10/27 05:25:43;;;;;;;53.78;19.40;;;;;;;;;;5029820;28;20009;-66
2022/10/27 05:28:10;;;;;;;45.37;19.07;;;;;;;;;;5029377;28;20395;-68
2022/10/27 05:30:35;;;;;;;54.55;18.23;;;;;;;;;;5030634;28;20278;-65
2022/10/27 05:33:00;;;;;;;42.08;17.40;;;;;;;;;;5022388;28;20064;-68
2022/10/27 05:35:26;;;;;;;40.50;16.63;;;;;;;;;;5030870;28;20067;-66
2022/10/27 05:37:51;;;;;;;48.13;19.48;;;;;;;;;;5023421;28;20594;-69
2022/10/27 05:40:16;;;;;;;54.93;19.27;;;;;;;;;;5030206;28;20048;-65
2022/10/27 05:42:49;;;;;;;48.80;18.98;;;;;;;;;;5033384;28;20393;-66
2022/10/27 05:45:14;;;;;;;46.97;17.73;;;;;;;;;;5014486;28;20021;-67
2022/10/27 05:47:39;;;;;;;56.30;17.50;;;;;;;;;;5023932;28;20140;-68
2022/10/27 05:50:04;;;;;;;51.57;17.53;;;;;;;;;;5028938;28;20072;-66
2022/10/27 05:52:30;;;;;;;51.83;19.42;;;;;;;;;;5030563;28;20255;-67
2022/10/27 05:54:55;;;;;;;54.53;19.48;;;;;;;;;;5032827;28;20024;-65
2022/10/27 05:57:20;;;;;;;51.90;19.13;;;;;;;;;;5032017;28;20487;-67
2022/10/27 05:59:45;;;;;;;55.22;20.33;;;;;;;;;;5031820;28;20021;-66
2022/10/27 06:02:11;;;;;;;61.92;22.45;;;;;;;;;;5033224;28;20025;-67
2022/10/27 06:04:36;;;;;;;60.33;22.60;;;;;;;;;;5030745;28;20061;-67
2022/10/27 06:07:01;;;;;;;53.75;20.42;;;;;;;;;;5030495;28;20020;-66
2022/10/27 06:09:26;;;;;;;50.30;20.50;;;;;;;;;;5032526;28;20026;-66
2022/10/27 06:11:51;;;;;;;41.38;18.30;;;;;;;;;;5031476;28;20022;-67
2022/10/27 06:14:17;;;;;;;49.13;17.00;;;;;;;;;;5032588;28;20036;-67
2022/10/27 06:16:42;;;;;;;47.80;19.83;;;;;;;;;;5031610;28;20108;-67
2022/10/27 06:19:07;;;;;;;45.90;17.73;;;;;;;;;;5031538;28;20431;-65
2022/10/27 06:21:32;;;;;;;43.88;19.27;;;;;;;;;;5031925;28;20507;-67
2022/10/27 06:23:57;;;;;;;51.80;20.23;;;;;;;;;;5031500;28;20113;-67
2022/10/27 06:26:23;;;;;;;56.08;19.02;;;;;;;;;;5029426;28;20025;-66
2022/10/27 06:28:49;;;;;;;39.25;18.25;;;;;;;;;;5018579;28;20024;-67
2022/10/27 06:31:14;;;;;;;43.22;18.27;;;;;;;;;;5031352;28;20006;-67
2022/10/27 06:33:40;;;;;;;51.85;18.13;;;;;;;;;;5017890;28;20017;-68
2022/10/27 06:36:05;;;;;;;44.88;18.08;;;;;;;;;;5031362;28;20044;-67
2022/10/27 06:38:30;;;;;;;40.47;18.05;;;;;;;;;;5031221;28;20048;-68
2022/10/27 06:40:55;;;;;;;45.90;18.20;;;;;;;;;;5031250;28;20033;-68
2022/10/27 06:43:20;;;;;;;41.67;16.67;;;;;;;;;;5019257;28;20029;-69
2022/10/27 06:45:46;;;;;;;40.60;17.58;;;;;;;;;;5031641;28;20013;-67
2022/10/27 06:48:12;;;;;;;50.03;18.70;;;;;;;;;;5017646;28;20022;-64
2022/10/27 06:50:37;;;;;;;48.22;18.90;;;;;;;;;;5030600;28;20492;-67
2022/10/27 06:53:02;;;;;;;58.15;22.10;;;;;;;;;;5031551;28;20026;-69
2022/10/27 06:55:27;;;;;;;51.50;19.83;;;;;;;;;;5031799;28;20029;-67
2022/10/27 06:57:53;;;;;;;49.63;19.08;;;;;;;;;;5031220;28;20107;-67
2022/10/27 07:00:18;;;;;;;49.05;17.73;;;;;;;;;;5031563;28;20086;-66
2022/10/27 07:02:43;;;;;;;44.88;19.05;;;;;;;;;;5030371;28;20029;-68
2022/10/27 07:05:08;;;;;;;55.38;21.23;;;;;;;;;;5030623;28;20017;-66
2022/10/27 07:07:35;;;;;;;60.97;21.73;;;;;;;;;;5029795;28;20017;-67
2022/10/27 07:10:00;;;;;;;51.72;20.80;;;;;;;;;;5032548;28;20017;-67
2022/10/27 07:12:25;;;;;;;49.75;20.70;;;;;;;;;;5018377;28;20036;-67
2022/10/27 07:14:50;;;;;;;50.13;20.55;;;;;;;;;;5030177;28;20071;-65
2022/10/27 07:17:15;;;;;;;55.10;19.38;;;;;;;;;;5031329;28;20049;-67
2022/10/27 07:19:41;;;;;;;51.97;20.13;;;;;;;;;;5030739;28;20540;-66
2022/10/27 07:22:06;;;;;;;46.45;20.60;;;;;;;;;;5030455;28;20272;-66
2022/10/27 07:24:31;;;;;;;46.60;18.83;;;;;;;;;;5031228;28;20017;-68
2022/10/27 07:26:56;;;;;;;48.85;16.80;;;;;;;;;;5017519;28;20024;-68
2022/10/27 07:29:22;;;;;;;54.15;19.77;;;;;;;;;;5025729;28;20083;-66
2022/10/27 07:31:47;;;;;;;44.53;18.10;;;;;;;;;;5031767;28;20093;-68
2022/10/27 07:34:12;;;;;;;39.65;17.05;;;;;;;;;;5030699;28;20025;-69
2022/10/27 07:36:37;;;;;;;32.08;15.93;;;;;;;;;;5029698;28;20501;-68
2022/10/27 07:39:03;;;;;;;43.13;18.17;;;;;;;;;;5024131;28;20030;-68
2022/10/27 07:41:28;;;;;;;36.28;16.23;;;;;;;;;;5024447;28;20101;-68
2022/10/27 07:43:53;;;;;;;36.40;15.55;;;;;;;;;;5031606;28;20018;-67
2022/10/27 07:46:18;;;;;;;36.92;14.75;;;;;;;;;;5029673;28;20029;-67
2022/10/27 07:48:43;;;;;;;34.25;16.23;;;;;;;;;;5031043;28;20095;-68
2022/10/27 07:51:09;;;;;;;39.73;16.47;;;;;;;;;;5026344;28;20021;-66
2022/10/27 07:53:34;;;;;;;40.90;14.73;;;;;;;;;;5024972;28;20679;-66
2022/10/27 07:55:59;;;;;;;33.25;15.30;;;;;;;;;;5029855;28;20580;-68
2022/10/27 07:58:24;;;;;;;29.08;13.57;;;;;;;;;;5023072;28;20564;-67
2022/10/27 08:00:50;;;;;;;48.30;15.70;;;;;;;;;;5023170;28;20017;-68
2022/10/27 08:03:16;;;;;;;36.42;14.95;;;;;;;;;;5015345;28;20060;-66
2022/10/27 08:05:41;;;;;;;32.22;15.30;;;;;;;;;;5026952;28;20129;-68
2022/10/27 08:08:07;;;;;;;26.20;14.32;;;;;;;;;;5029970;28;20019;-67
2022/10/27 08:10:34;;;;;;;24.98;12.18;;;;;;;;;;5030988;28;20541;-68
2022/10/27 08:13:00;;;;;;;30.08;13.00;;;;;;;;;;5030537;28;20025;-68
2022/10/27 08:15:25;;;;;;;35.08;14.70;;;;;;;;;;5030052;28;20017;-66
2022/10/27 08:17:51;;;;;;;32.30;12.73;;;;;;;;;;5030103;28;20025;-66
2022/10/27 08:20:16;;;;;;;29.55;12.10;;;;;;;;;;5029545;28;20033;-66
2022/10/27 08:22:42;;;;;;;23.30;10.98;;;;;;;;;;5017138;28;20017;-68
2022/10/27 08:25:07;;;;;;;23.00;10.77;;;;;;;;;;5015444;28;20117;-65
2022/10/27 08:27:32;;;;;;;26.23;11.57;;;;;;;;;;5028900;28;20092;-68
2022/10/27 08:29:57;;;;;;;24.52;10.35;;;;;;;;;;5025893;28;20036;-66
2022/10/27 08:32:23;;;;;;;29.17;11.90;;;;;;;;;;5024798;28;20022;-68
2022/10/27 08:34:48;;;;;;;27.67;11.00;;;;;;;;;;5021431;28;20342;-67
2022/10/27 08:37:13;;;;;;;21.15;10.85;;;;;;;;;;5030490;28;20036;-67
2022/10/27 08:39:38;;;;;;;24.27;9.60;;;;;;;;;;5031229;28;20052;-65
2022/10/27 08:42:08;;;;;;;19.85;10.65;;;;;;;;;;5030570;28;20547;-68
2022/10/27 08:44:38;;;;;;;24.27;11.23;;;;;;;;;;5030316;28;20072;-68
2022/10/27 08:47:05;;;;;;;20.85;9.30;;;;;;;;;;5024322;28;20357;-68
2022/10/27 08:49:36;;;;;;;31.58;10.90;;;;;;;;;;5010032;28;20037;-68
2022/10/27 08:52:13;;;;;;;20.80;10.40;;;;;;;;;;5028282;28;20128;-67
2022/10/27 08:54:40;;;;;;;23.45;10.88;;;;;;;;;;5019503;28;20022;-67
2022/10/27 08:57:07;;;;;;;23.25;10.45;;;;;;;;;;5033346;28;20108;-67
2022/10/27 08:59:34;;;;;;;25.92;10.75;;;;;;;;;;5034685;28;20022;-68
2022/10/27 09:02:20;;;;;;;19.90;8.50;;;;;;;;;;5033868;28;20029;-66
2022/10/27 09:04:59;;;;;;;29.52;10.50;;;;;;;;;;5029677;28;20140;-68
2022/10/27 09:07:35;;;;;;;28.50;8.82;;;;;;;;;;5027932;28;20018;-65
2022/10/27 09:10:03;;;;;;;18.52;7.70;;;;;;;;;;5034355;28;20044;-68
2022/10/27 09:12:34;;;;;;;17.80;8.15;;;;;;;;;;5031031;28;20525;-67
2022/10/27 09:15:08;;;;;;;16.40;8.80;;;;;;;;;;5033211;28;20027;-66
2022/10/27 09:17:37;;;;;;;16.83;7.70;;;;;;;;;;5032675;28;20028;-68
2022/10/27 09:20:04;;;;;;;32.75;8.50;;;;;;;;;;5023690;28;20057;-67
2022/10/27 09:22:32;;;;;;;20.42;8.48;;;;;;;;;;5029153;28;20455;-68
2022/10/27 09:25:05;;;;;;;17.63;7.90;;;;;;;;;;5023138;28;20494;-68
2022/10/27 09:27:30;;;;;;;13.18;6.65;;;;;;;;;;5027042;28;20022;-66
2022/10/27 09:30:00;;;;;;;23.67;8.70;;;;;;;;;;5023736;28;20364;-68
2022/10/27 09:32:26;;;;;;;14.57;7.25;;;;;;;;;;5033856;28;20017;-70
2022/10/27 09:34:51;;;;;;;17.00;7.53;;;;;;;;;;5032195;28;20017;-68
2022/10/27 09:37:17;;;;;;;18.20;7.10;;;;;;;;;;5018195;28;20025;-67
2022/10/27 09:39:47;;;;;;;17.70;7.30;;;;;;;;;;5033218;28;20022;-67
2022/10/27 09:42:12;;;;;;;17.30;7.82;;;;;;;;;;5032693;28;20035;-66
2022/10/27 09:44:37;;;;;;;23.42;7.85;;;;;;;;;;5033570;28;20013;-68
2022/10/27 09:47:02;;;;;;;16.98;6.95;;;;;;;;;;5032581;28;20442;-66
2022/10/27 09:49:31;;;;;;;21.55;7.75;;;;;;;;;;5032592;28;20029;-67
2022/10/27 09:52:02;;;;;;;16.20;6.90;;;;;;;;;;5029372;28;20117;-67
2022/10/27 09:54:27;;;;;;;25.67;8.05;;;;;;;;;;5033241;28;20434;-70
2022/10/27 09:56:53;;;;;;;13.87;6.00;;;;;;;;;;5032029;28;20071;-67
2022/10/27 09:59:22;;;;;;;20.85;6.53;;;;;;;;;;5033325;28;20334;-68
2022/10/27 10:01:48;;;;;;;;;;;;;;;;;;5019781;28;20009;-67
2022/10/27 10:04:27;;;;;;;18.13;7.20;;;;;;;;;;5029306;28;19916;-68
2022/10/27 10:07:15;;;;;;;13.15;5.93;;;;;;;;;;5029358;28;20379;-66
2022/10/27 10:09:41;;;;;;;18.85;6.10;;;;;;;;;;5032383;28;20026;-68
2022/10/27 10:12:18;;;;;;;23.92;5.68;;;;;;;;;;5032473;28;20040;-66
2022/10/27 10:14:43;;;;;;;12.07;5.13;;;;;;;;;;5032210;28;20036;-68
2022/10/27 10:17:22;;;;;;;16.85;5.40;;;;;;;;;;5032243;28;20025;-67
2022/10/27 10:19:48;;;;;;;17.65;6.10;;;;;;;;;;5031768;28;20033;-67
2022/10/27 10:22:24;;;;;;;14.10;5.75;;;;;;;;;;5030297;28;20029;-67
2022/10/27 10:24:50;;;;;;;13.05;5.35;;;;;;;;;;5031922;28;20013;-66
2022/10/27 10:27:24;;;;;;;18.15;5.00;;;;;;;;;;5031584;28;20063;-67
2022/10/27 10:29:49;;;;;;;13.10;5.03;;;;;;;;;;5029612;28;20029;-66
2022/10/27 10:32:33;;;;;;;14.60;4.43;;;;;;;;;;5033163;28;20092;-68
2022/10/27 10:34:59;;;;;;;9.70;3.70;;;;;;;;;;5018803;28;20017;-67
2022/10/27 10:37:42;;;;;;;14.80;3.60;;;;;;;;;;5031167;28;20083;-67
2022/10/27 10:40:10;;;;;;;15.20;3.40;;;;;;;;;;5032630;28;20028;-66
2022/10/27 10:42:35;;;;;;;17.13;3.60;;;;;;;;;;5032432;28;20483;-64
2022/10/27 10:45:29;;;;;;;14.93;3.05;;;;;;;;;;5029103;28;20068;-66
2022/10/27 10:48:13;;;;;;;26.50;3.83;;;;;;;;;;5022520;28;20037;-67
2022/10/27 10:50:43;;;;;;;10.98;4.10;;;;;;;;;;5034024;28;20049;-68
2022/10/27 10:53:17;;;;;;;12.57;4.35;;;;;;;;;;5029218;28;20409;-68
2022/10/27 10:55:42;;;;;;;16.73;4.43;;;;;;;;;;5023144;28;20021;-67
2022/10/27 10:58:14;;;;;;;12.53;3.43;;;;;;;;;;5028130;28;20483;-68
2022/10/27 11:00:50;;;;;;;15.48;4.07;;;;;;;;;;5022392;28;20320;-67
2022/10/27 11:03:17;;;;;;;17.90;4.90;;;;;;;;;;5032862;28;20479;-66
2022/10/27 11:05:42;;;;;;;17.75;4.15;;;;;;;;;;5025009;28;20100;-66
2022/10/27 11:08:19;;;;;;;12.32;4.30;;;;;;;;;;5030700;28;20438;-67
2022/10/27 11:10:45;;;;;;;20.75;3.80;;;;;;;;;;5032176;28;20048;-67
2022/10/27 11:13:14;;;;;;;13.65;4.40;;;;;;;;;;5031576;28;20018;-67
2022/10/27 11:15:59;;;;;;;16.05;4.07;;;;;;;;;;5030839;28;20402;-66
2022/10/27 11:18:26;;;;;;;20.40;4.50;;;;;;;;;;5021437;28;20092;-67
2022/10/27 11:20:53;;;;;;;16.77;4.25;;;;;;;;;;5027470;28;20046;-67
2022/10/27 11:23:27;;;;;;;15.85;4.00;;;;;;;;;;5032050;28;20442;-66
2022/10/27 11:25:52;;;;;;;12.00;3.80;;;;;;;;;;5028800;28;20022;-68
2022/10/27 11:28:21;;;;;;;19.02;4.68;;;;;;;;;;5019761;28;20029;-68
2022/10/27 11:30:46;;;;;;;;;;;;;;;;;;5030724;28;20029;-67
2022/10/27 11:33:35;;;;;;;17.58;3.40;;;;;;;;;;5030194;28;19905;-68
2022/10/27 11:36:10;;;;;;;13.85;4.10;;;;;;;;;;5018571;28;20427;-67
2022/10/27 11:38:53;;;;;;;16.20;4.22;;;;;;;;;;5029742;28;20055;-67
2022/10/27 11:41:32;;;;;;;17.30;4.65;;;;;;;;;;5031226;28;20029;-68
2022/10/27 11:44:15;;;;;;;10.43;4.22;;;;;;;;;;5031634;28;20511;-68
2022/10/27 11:46:59;;;;;;;11.15;4.03;;;;;;;;;;5014418;28;20079;-66
2022/10/27 11:49:36;;;;;;;18.25;3.65;;;;;;;;;;5023075;28;20028;-67
2022/10/27 11:52:23;;;;;;;17.33;4.45;;;;;;;;;;5023732;28;20025;-67
2022/10/27 11:54:49;;;;;;;12.85;4.30;;;;;;;;;;5031141;28;20499;-67
2022/10/27 11:57:17;;;;;;;16.40;4.88;;;;;;;;;;5020418;28;20033;-67
2022/10/27 11:59:51;;;;;;;19.83;5.05;;;;;;;;;;5027400;28;20029;-68
2022/10/27 12:02:34;;;;;;;17.05;4.35;;;;;;;;;;5032739;28;20029;-67
2022/10/27 12:05:09;;;;;;;19.48;5.13;;;;;;;;;;5030600;28;20025;-68
2022/10/27 12:07:44;;;;;;;14.35;4.78;;;;;;;;;;5032045;28;20022;-67
2022/10/27 12:10:09;;;;;;;15.77;5.03;;;;;;;;;;5034464;28;20033;-67
2022/10/27 12:12:38;;;;;;;18.00;4.40;;;;;;;;;;5032073;28;20029;-66
2022/10/27 12:15:15;;;;;;;14.82;4.63;;;;;;;;;;5032918;28;20243;-66
2022/10/27 12:17:58;;;;;;;23.63;5.03;;;;;;;;;;5032110;28;20029;-67
2022/10/27 12:20:27;;;;;;;12.00;3.88;;;;;;;;;;5031049;28;20036;-68
2022/10/27 12:22:52;;;;;;;;;;;;;;;;;;5024670;28;20472;-67
2022/10/27 12:25:31;;;;;;;11.85;3.90;;;;;;;;;;5024761;28;19917;-66
2022/10/27 12:27:58;;;;;;;15.55;3.30;;;;;;;;;;5029138;28;20103;-66
2022/10/27 12:30:24;;;;;;;16.55;3.40;;;;;;;;;;5026338;28;20025;-67
2022/10/27 12:33:01;;;;;;;7.82;2.80;;;;;;;;;;5030927;28;20100;-68
2022/10/27 12:35:31;;;;;;;22.95;3.30;;;;;;;;;;5016915;28;20029;-68
2022/10/27 12:37:56;;;;;;;8.00;2.83;;;;;;;;;;5029920;28;20036;-68
2022/10/27 12:40:40;;;;;;;28.37;13.23;;;;;;;;;;5016315;28;20066;-67
2022/10/27 12:43:15;;;;;;;34.83;4.32;;;;;;;;;;5031580;28;20356;-66
2022/10/27 12:45:53;;;;;;;14.13;3.22;;;;;;;;;;5030284;28;20021;-68
2022/10/27 12:48:32;;;;;;;11.25;2.40;;;;;;;;;;5030025;28;20010;-67
2022/10/27 12:50:57;;;;;;;16.33;4.55;;;;;;;;;;5030419;28;20017;-67
2022/10/27 12:53:43;;;;;;;19.37;3.27;;;;;;;;;;5030408;28;20072;-67
2022/10/27 12:56:17;;;;;;;9.02;2.33;;;;;;;;;;5029850;28;20270;-67
2022/10/27 12:59:02;;;;;;;11.75;2.15;;;;;;;;;;5031049;28;20017;-67
2022/10/27 13:01:38;;;;;;;16.45;2.20;;;;;;;;;;5030378;28;20022;-67
2022/10/27 13:04:22;;;;;;;6.75;1.80;;;;;;;;;;5029263;28;20018;-68
2022/10/27 13:07:07;;;;;;;22.13;2.35;;;;;;;;;;5025300;28;20040;-66
2022/10/27 13:09:49;;;;;;;11.73;2.42;;;;;;;;;;5030704;28;20022;-67
2022/10/27 13:12:17;;;;;;;5.28;1.65;;;;;;;;;;5028716;28;20098;-66
2022/10/27 13:14:42;;;;;;;16.33;2.08;;;;;;;;;;5025567;28;20417;-67
2022/10/27 13:17:30;;;;;;;13.20;2.00;;;;;;;;;;5016346;28;20501;-68
2022/10/27 13:19:55;;;;;;;;;;;;;;;;;;5021602;28;20289;-67
2022/10/27 13:22:39;;;;;;;14.50;1.90;;;;;;;;;;5029467;28;20003;-68
2022/10/27 13:25:10;;;;;;;7.03;1.50;;;;;;;;;;5017829;28;20018;-65
2022/10/27 13:27:39;;;;;;;30.92;2.97;;;;;;;;;;5015689;28;20024;-66
2022/10/27 13:30:30;;;;;;;13.35;2.15;;;;;;;;;;5023820;28;20017;-67
2022/10/27 13:32:55;;;;;;;6.75;1.52;;;;;;;;;;5018261;28;20029;-66
2022/10/27 13:35:34;;;;;;;4.43;1.67;;;;;;;;;;5027761;28;20021;-68
2022/10/27 13:38:22;;;;;;;5.68;1.67;;;;;;;;;;5029203;28;20029;-67
2022/10/27 13:40:47;;;;;;;4.78;1.40;;;;;;;;;;5032727;28;20040;-68
2022/10/27 13:43:21;;;;;;;6.93;2.47;;;;;;;;;;5033065;28;20106;-67
2022/10/27 13:45:47;;;;;;;5.95;2.00;;;;;;;;;;5031726;28;20028;-68
2022/10/27 13:48:15;;;;;;;6.20;1.63;;;;;;;;;;5033117;28;20037;-68
2022/10/27 13:50:41;;;;;;;13.93;5.05;;;;;;;;;;5031735;28;20389;-68
2022/10/27 13:53:19;;;;;;;9.32;1.90;;;;;;;;;;5031022;28;20175;-70
2022/10/27 13:55:44;;;;;;;3.95;1.40;;;;;;;;;;5023359;28;20018;-68
2022/10/27 13:58:22;;;;;;;9.00;1.80;;;;;;;;;;5030162;28;20033;-68
2022/10/27 14:01:06;;;;;;;8.32;3.60;;;;;;;;;;5034141;28;20083;-69
2022/10/27 14:03:37;;;;;;;6.10;2.30;;;;;;;;;;5030515;28;20021;-68
2022/10/27 14:06:09;;;;;;;9.20;2.95;;;;;;;;;;5030870;28;20079;-67
2022/10/27 14:08:36;;;;;;;8.65;2.00;;;;;;;;;;5032797;28;20100;-67
2022/10/27 14:11:11;;;;;;;7.50;1.85;;;;;;;;;;5032657;28;20025;-67
2022/10/27 14:13:41;;;;;;;11.93;2.05;;;;;;;;;;5032147;28;20024;-67
2022/10/27 14:16:06;;;;;;;9.55;1.92;;;;;;;;;;5032019;28;20091;-67
2022/10/27 14:18:33;;;;;;;11.93;2.00;;;;;;;;;;5033122;28;20462;-68
2022/10/27 14:21:12;;;;;;;8.30;3.30;;;;;;;;;;5031605;28;20440;-67
2022/10/27 14:23:37;;;;;;;12.15;2.70;;;;;;;;;;5019871;28;20033;-68
2022/10/27 14:26:23;;;;;;;11.63;2.50;;;;;;;;;;5031799;28;20051;-67
2022/10/27 14:28:54;;;;;;;9.77;1.80;;;;;;;;;;5019258;28;20045;-70
2022/10/27 14:31:22;;;;;;;10.43;2.10;;;;;;;;;;5024674;28;20021;-67
2022/10/27 14:33:47;;;;;;;7.53;2.30;;;;;;;;;;5030207;28;20033;-67